KCCA

Details ICAO KCCA
Name Chaffee AAF
Region United States
Timezone America/Chicago (UTC-6.0)
Plans Departing 0
Arriving 1
Stats Elevation 470 ft / 143 m (AMSL)
Location 35.300092° -94.316879°
Runways 2
Magnetic Variation 1.643° E
Sunrise 2017-12-11 13:17:32 UTC / 2017-12-11 07:17:32 Local
Sunset 2017-12-11 23:06:39 UTC / 2017-12-11 17:06:39 Local
Advertisement - Login to hide

Runways

ID Width Length Bearing (true) Bearing (mag) Surface Threshold Offset Overrun Length
03 120 ft / 37 m 1,602 ft / 488 m 35.00° 33.36° Gravel 0 ft / 0 m 0 ft / 0 m
07 120 ft / 37 m 2,202 ft / 671 m 75.00° 73.36° Gravel 0 ft / 0 m 0 ft / 0 m
21 120 ft / 37 m 1,602 ft / 488 m 215.00° 213.36° Gravel 0 ft / 0 m 0 ft / 0 m
25 120 ft / 37 m 2,202 ft / 671 m 255.00° 253.36° Gravel 0 ft / 0 m 0 ft / 0 m

Map

Weather


0- 5 10 15 20 25 30 35+ Temperature / ° C

Clouds and Precipitation
Forecast for 2017-12-12 06:00 UTC. Updated an hour ago

Ground ~20,000 ft ~40,000 ft Winds

METAR

KCCA 120435Z AUTO VRB06G15KT 300V360 10SM CLR 12/M03 A3008 RMK AO2

TAF

Not found
Warning: Do not use this data for real-world aviation or navigation. No guarantee of current accuracy is given.